Time;durP1;ratioP1;P1;durP2;ratioP2;P2;SDS_P1;SDS_P2;PMS_P1;PMS_P2;Temp;Humidity;BMP_temperature;BMP_pressure;BME280_temperature;BME280_humidity;BME280_pressure;Samples;Min_cycle;Max_cycle;Signal;HPM_P1;HPM_P2
2023/01/28 00:01:05;;;;;;;6.22;4.28;;;;;;;;;;5005949;28;20026;-71
2023/01/28 00:03:34;;;;;;;9.88;3.70;;;;;;;;;;5007669;28;20085;-72
2023/01/28 00:06:07;;;;;;;5.80;3.85;;;;;;;;;;5008041;28;20030;-70
2023/01/28 00:08:35;;;;;;;4.93;3.55;;;;;;;;;;5006135;28;20076;-69
2023/01/28 00:11:04;;;;;;;5.55;3.97;;;;;;;;;;5005767;28;20040;-69
2023/01/28 00:13:29;;;;;;;5.55;3.88;;;;;;;;;;5005952;28;20041;-70
2023/01/28 00:15:55;;;;;;;6.22;4.45;;;;;;;;;;4998532;28;20467;-70
2023/01/28 00:18:21;;;;;;;4.63;3.55;;;;;;;;;;5006343;28;20029;-72
2023/01/28 00:20:54;;;;;;;6.05;3.85;;;;;;;;;;5007444;28;20461;-71
2023/01/28 00:23:20;;;;;;;6.20;4.30;;;;;;;;;;5007789;28;20022;-70
2023/01/28 00:25:45;;;;;;;7.10;5.18;;;;;;;;;;5007560;28;20034;-70
2023/01/28 00:28:13;;;;;;;7.32;4.00;;;;;;;;;;5005261;28;20030;-70
2023/01/28 00:30:38;;;;;;;4.65;3.80;;;;;;;;;;5005661;28;20030;-70
2023/01/28 00:33:03;;;;;;;6.50;3.60;;;;;;;;;;5006856;28;20026;-70
2023/01/28 00:35:28;;;;;;;7.72;4.18;;;;;;;;;;5005733;28;20045;-72
2023/01/28 00:37:54;;;;;;;7.30;4.40;;;;;;;;;;5001276;28;20054;-70
2023/01/28 00:40:22;;;;;;;4.65;3.80;;;;;;;;;;4987182;28;20038;-71
2023/01/28 00:42:47;;;;;;;7.25;5.13;;;;;;;;;;4987245;28;20108;-70
2023/01/28 00:45:13;;;;;;;5.43;4.25;;;;;;;;;;4987932;28;20031;-70
2023/01/28 00:47:38;;;;;;;5.78;4.55;;;;;;;;;;5002035;28;20130;-71
2023/01/28 00:50:04;;;;;;;10.43;4.60;;;;;;;;;;5005549;28;20042;-70
2023/01/28 00:52:31;;;;;;;6.13;4.85;;;;;;;;;;5005049;28;20402;-71
2023/01/28 00:54:59;;;;;;;5.93;4.55;;;;;;;;;;5005498;28;20041;-70
2023/01/28 00:57:25;;;;;;;5.97;4.40;;;;;;;;;;5006365;28;20053;-71
2023/01/28 00:59:50;;;;;;;5.07;4.18;;;;;;;;;;5006129;28;20065;-70
2023/01/28 01:02:18;;;;;;;5.53;4.38;;;;;;;;;;5004719;28;20463;-70
2023/01/28 01:04:53;;;;;;;5.72;4.00;;;;;;;;;;5005300;28;20040;-71
2023/01/28 01:07:19;;;;;;;6.30;4.13;;;;;;;;;;5006559;28;20032;-70
2023/01/28 01:09:45;;;;;;;5.70;4.05;;;;;;;;;;5004640;28;20198;-70
2023/01/28 01:12:12;;;;;;;6.35;3.97;;;;;;;;;;5004672;28;20026;-71
2023/01/28 01:14:38;;;;;;;4.13;3.30;;;;;;;;;;5006342;28;20042;-70
2023/01/28 01:17:03;;;;;;;6.38;3.83;;;;;;;;;;5005410;28;20030;-70
2023/01/28 01:19:28;;;;;;;7.00;3.88;;;;;;;;;;5006771;28;20462;-70
2023/01/28 01:21:57;;;;;;;5.90;3.38;;;;;;;;;;4985243;28;20031;-70
2023/01/28 01:24:22;;;;;;;6.55;3.40;;;;;;;;;;4984718;28;20431;-71
2023/01/28 01:26:48;;;;;;;3.65;3.08;;;;;;;;;;4986780;28;20109;-70
2023/01/28 01:29:13;;;;;;;6.05;3.40;;;;;;;;;;4986508;28;20045;-71
2023/01/28 01:31:39;;;;;;;5.28;3.50;;;;;;;;;;4985182;28;20105;-71
2023/01/28 01:34:04;;;;;;;4.38;3.50;;;;;;;;;;4986403;28;20487;-72
2023/01/28 01:36:29;;;;;;;5.88;3.50;;;;;;;;;;4986844;28;20080;-69
2023/01/28 01:38:55;;;;;;;4.47;3.10;;;;;;;;;;4971375;28;20123;-70
2023/01/28 01:41:28;;;;;;;4.28;3.10;;;;;;;;;;4965658;28;20514;-70
2023/01/28 01:43:55;;;;;;;5.78;3.33;;;;;;;;;;4983215;28;20114;-70
2023/01/28 01:46:24;;;;;;;4.40;3.20;;;;;;;;;;4992063;28;20096;-70
2023/01/28 01:48:49;;;;;;;5.82;2.95;;;;;;;;;;5004560;28;20026;-70
2023/01/28 01:51:18;;;;;;;5.80;2.95;;;;;;;;;;5004952;28;20406;-70
2023/01/28 01:53:45;;;;;;;4.32;2.80;;;;;;;;;;5004794;28;20092;-70
2023/01/28 01:56:15;;;;;;;4.65;3.33;;;;;;;;;;5005707;28;20100;-70
2023/01/28 01:58:42;;;;;;;5.75;3.28;;;;;;;;;;5005499;28;20042;-71
2023/01/28 02:01:11;;;;;;;5.72;2.88;;;;;;;;;;5005583;28;20037;-69
2023/01/28 02:03:51;;;;;;;4.78;2.80;;;;;;;;;;5005517;28;20038;-71
2023/01/28 02:06:16;;;;;;;3.45;2.50;;;;;;;;;;5003084;28;20372;-70
2023/01/28 02:08:43;;;;;;;4.50;2.88;;;;;;;;;;5003946;28;20109;-69
2023/01/28 02:11:09;;;;;;;3.03;2.28;;;;;;;;;;4987429;28;20034;-71
2023/01/28 02:13:37;;;;;;;4.57;2.95;;;;;;;;;;4987575;28;20056;-70
2023/01/28 02:16:03;;;;;;;4.57;2.90;;;;;;;;;;5005356;28;20037;-70
2023/01/28 02:18:28;;;;;;;3.65;2.45;;;;;;;;;;5005650;28;20044;-69
2023/01/28 02:21:00;;;;;;;5.18;2.83;;;;;;;;;;5003072;28;20372;-70
2023/01/28 02:23:25;;;;;;;5.18;3.20;;;;;;;;;;5003289;28;20036;-70
2023/01/28 02:26:10;;;;;;;3.45;2.50;;;;;;;;;;5003726;28;20104;-70
2023/01/28 02:29:00;;;;;;;3.30;2.30;;;;;;;;;;5002386;28;20042;-70
2023/01/28 02:31:25;;;;;;;3.47;2.30;;;;;;;;;;4987111;28;20101;-70
2023/01/28 02:34:13;;;;;;;2.83;2.50;;;;;;;;;;5003881;28;20388;-70
2023/01/28 02:36:47;;;;;;;3.72;2.50;;;;;;;;;;5005217;28;20018;-70
2023/01/28 02:39:17;;;;;;;2.92;2.28;;;;;;;;;;4965803;28;20178;-70
2023/01/28 02:41:47;;;;;;;4.78;2.50;;;;;;;;;;4964012;28;20031;-71
2023/01/28 02:44:13;;;;;;;3.78;2.15;;;;;;;;;;4963658;28;20027;-69
2023/01/28 02:49:30;;;;;;;3.13;2.10;;;;;;;;;;5004359;28;20037;-69
2023/01/28 02:52:01;;;;;;;2.60;1.92;;;;;;;;;;4983544;28;20030;-70
2023/01/28 02:54:40;;;;;;;5.70;2.30;;;;;;;;;;5004440;28;20505;-70
2023/01/28 02:57:11;;;;;;;3.40;2.22;;;;;;;;;;5004779;28;20098;-70
2023/01/28 02:59:44;;;;;;;3.42;2.30;;;;;;;;;;4986797;28;20041;-71
2023/01/28 03:02:22;;;;;;;4.32;2.60;;;;;;;;;;5004720;28;20032;-70
2023/01/28 03:05:08;;;;;;;3.45;2.42;;;;;;;;;;4986682;28;20030;-70
2023/01/28 03:07:35;;;;;;;2.85;2.15;;;;;;;;;;5000094;28;20539;-70
2023/01/28 03:10:04;;;;;;;5.18;2.97;;;;;;;;;;5004526;28;20396;-70
2023/01/28 03:37:40;;;;;;;3.95;2.60;;;;;;;;;;4989041;28;20035;-75
2023/01/28 03:40:09;;;;;;;3.88;2.53;;;;;;;;;;4987610;28;20104;-74
2023/01/28 03:42:37;;;;;;;4.15;2.40;;;;;;;;;;4988874;28;20479;-75
2023/01/28 03:45:04;;;;;;;4.32;2.75;;;;;;;;;;4987114;28;20038;-74
2023/01/28 03:47:32;;;;;;;4.82;2.78;;;;;;;;;;5002438;28;20026;-75
2023/01/28 03:49:59;;;;;;;4.88;2.80;;;;;;;;;;5006341;28;20049;-74
2023/01/28 03:52:25;;;;;;;4.65;2.40;;;;;;;;;;5009017;28;20048;-76
2023/01/28 03:54:51;;;;;;;4.85;2.70;;;;;;;;;;4990447;28;20042;-74
2023/01/28 03:57:18;;;;;;;3.30;2.00;;;;;;;;;;5009316;28;20108;-74
2023/01/28 03:59:48;;;;;;;3.72;2.10;;;;;;;;;;5008803;28;20394;-74
2023/01/28 04:02:14;;;;;;;4.53;1.95;;;;;;;;;;5006611;28;20105;-73
2023/01/28 04:04:40;;;;;;;5.38;2.17;;;;;;;;;;5008972;28;20113;-74
2023/01/28 04:07:07;;;;;;;3.15;2.08;;;;;;;;;;4990726;28;20037;-72
2023/01/28 04:09:33;;;;;;;2.90;2.00;;;;;;;;;;5008307;28;20026;-74
2023/01/28 04:11:58;;;;;;;3.30;2.13;;;;;;;;;;5006448;28;20052;-74
2023/01/28 04:14:24;;;;;;;4.70;2.00;;;;;;;;;;5008620;28;20042;-70
2023/01/28 04:16:49;;;;;;;2.45;1.75;;;;;;;;;;5006483;28;20046;-70
2023/01/28 04:19:14;;;;;;;4.43;1.92;;;;;;;;;;5008460;28;20387;-70
2023/01/28 04:21:42;;;;;;;3.22;2.10;;;;;;;;;;5008208;28;20111;-69
2023/01/28 04:24:09;;;;;;;3.38;2.10;;;;;;;;;;5007904;28;20057;-70
2023/01/28 04:26:35;;;;;;;4.07;2.30;;;;;;;;;;5008288;28;20022;-70
2023/01/28 04:29:00;;;;;;;4.22;2.17;;;;;;;;;;5008030;28;20036;-70
2023/01/28 04:31:25;;;;;;;4.53;2.40;;;;;;;;;;5007319;28;20037;-70
2023/01/28 04:33:51;;;;;;;3.97;2.22;;;;;;;;;;5007437;28;20565;-70
2023/01/28 04:36:16;;;;;;;2.92;2.00;;;;;;;;;;4996972;28;20058;-70
2023/01/28 04:38:41;;;;;;;3.25;2.15;;;;;;;;;;4988694;28;20113;-70
2023/01/28 04:41:07;;;;;;;2.42;2.00;;;;;;;;;;4987351;28;20117;-70
2023/01/28 04:43:32;;;;;;;4.35;2.17;;;;;;;;;;4988185;28;20027;-70
2023/01/28 04:46:00;;;;;;;5.80;2.55;;;;;;;;;;4990477;28;20125;-70
2023/01/28 04:48:25;;;;;;;5.82;2.30;;;;;;;;;;5007613;28;20124;-70
2023/01/28 04:50:50;;;;;;;5.20;2.45;;;;;;;;;;5006978;28;20040;-70
2023/01/28 04:53:16;;;;;;;7.20;2.53;;;;;;;;;;4990288;28;20399;-71
2023/01/28 04:55:41;;;;;;;3.53;2.30;;;;;;;;;;5006120;28;20237;-70
2023/01/28 04:58:06;;;;;;;6.53;2.45;;;;;;;;;;5006624;28;20041;-70
2023/01/28 05:00:32;;;;;;;3.60;1.98;;;;;;;;;;5007969;28;20044;-70
2023/01/28 05:02:57;;;;;;;4.82;2.00;;;;;;;;;;5005222;28;20030;-70
2023/01/28 05:05:22;;;;;;;4.68;2.15;;;;;;;;;;5007551;28;20068;-71
2023/01/28 05:07:54;;;;;;;3.17;2.10;;;;;;;;;;5006501;28;20050;-68
2023/01/28 05:10:20;;;;;;;3.75;2.15;;;;;;;;;;5006994;28;20475;-70
2023/01/28 05:12:46;;;;;;;2.63;2.05;;;;;;;;;;5006439;28;20052;-69
2023/01/28 05:15:11;;;;;;;4.70;2.70;;;;;;;;;;5006862;28;20080;-73
2023/01/28 05:17:39;;;;;;;5.35;2.72;;;;;;;;;;5006614;28;20278;-75
2023/01/28 05:20:05;;;;;;;4.03;2.80;;;;;;;;;;5005127;28;20034;-75
2023/01/28 05:22:30;;;;;;;6.03;2.95;;;;;;;;;;5007005;28;20487;-75
2023/01/28 05:24:56;;;;;;;7.95;2.65;;;;;;;;;;5005462;28;20022;-74
2023/01/28 05:27:21;;;;;;;4.70;3.17;;;;;;;;;;5006107;28;20423;-75
2023/01/28 05:29:46;;;;;;;4.22;3.05;;;;;;;;;;5006635;28;20026;-75
2023/01/28 05:32:12;;;;;;;4.32;3.13;;;;;;;;;;5006108;28;20026;-75
2023/01/28 05:34:42;;;;;;;5.70;3.40;;;;;;;;;;5006329;28;20069;-74
2023/01/28 05:37:07;;;;;;;5.93;3.70;;;;;;;;;;4988403;28;20026;-74
2023/01/28 05:39:32;;;;;;;4.85;3.88;;;;;;;;;;4987557;28;20084;-74
2023/01/28 05:41:58;;;;;;;5.32;3.20;;;;;;;;;;4985625;28;20053;-70
2023/01/28 05:44:23;;;;;;;7.20;3.63;;;;;;;;;;4987031;28;20037;-69
2023/01/28 05:46:48;;;;;;;5.38;3.50;;;;;;;;;;4994635;28;20069;-69
2023/01/28 05:49:14;;;;;;;5.70;3.33;;;;;;;;;;5006081;28;20030;-70
2023/01/28 05:51:42;;;;;;;7.53;3.63;;;;;;;;;;5004758;28;20080;-70
2023/01/28 05:54:07;;;;;;;6.15;3.58;;;;;;;;;;5003977;28;20175;-70
2023/01/28 05:56:35;;;;;;;4.78;3.58;;;;;;;;;;5006574;28;20113;-70
2023/01/28 05:59:00;;;;;;;6.18;3.70;;;;;;;;;;5004762;28;20034;-70
2023/01/28 06:01:26;;;;;;;8.25;3.75;;;;;;;;;;5006139;28;20395;-70
2023/01/28 06:03:51;;;;;;;5.13;3.67;;;;;;;;;;5004236;28;20030;-70
2023/01/28 06:06:18;;;;;;;5.18;4.05;;;;;;;;;;5006502;28;20119;-70
2023/01/28 06:08:44;;;;;;;6.05;3.85;;;;;;;;;;5004240;28;20029;-70
2023/01/28 06:11:09;;;;;;;6.72;3.90;;;;;;;;;;5004686;28;20049;-69
2023/01/28 06:13:34;;;;;;;6.18;4.10;;;;;;;;;;5003646;28;20032;-70
2023/01/28 06:16:00;;;;;;;6.80;4.20;;;;;;;;;;5005090;28;20081;-70
2023/01/28 06:18:27;;;;;;;6.75;4.50;;;;;;;;;;4987871;28;20285;-69
2023/01/28 06:20:55;;;;;;;6.30;4.13;;;;;;;;;;5004525;28;20034;-74
2023/01/28 06:23:23;;;;;;;6.82;3.95;;;;;;;;;;5005651;28;20471;-73
2023/01/28 06:25:52;;;;;;;6.47;3.92;;;;;;;;;;5005603;28;20103;-70
2023/01/28 06:28:23;;;;;;;5.15;4.28;;;;;;;;;;5005169;28;20033;-70
2023/01/28 06:30:49;;;;;;;6.25;4.40;;;;;;;;;;5003433;28;20060;-69
2023/01/28 06:33:14;;;;;;;7.63;4.38;;;;;;;;;;5005464;28;20475;-69
2023/01/28 06:35:40;;;;;;;8.52;4.47;;;;;;;;;;4987279;28;20045;-70
2023/01/28 06:38:05;;;;;;;7.82;4.72;;;;;;;;;;4985912;28;20027;-69
2023/01/28 06:40:30;;;;;;;5.07;4.30;;;;;;;;;;4967163;28;20050;-71
2023/01/28 06:42:55;;;;;;;6.38;4.55;;;;;;;;;;4985724;28;20030;-75
2023/01/28 06:45:21;;;;;;;6.90;4.47;;;;;;;;;;4983496;28;20085;-71
2023/01/28 06:47:46;;;;;;;5.43;4.30;;;;;;;;;;5001194;28;20029;-75
2023/01/28 06:50:11;;;;;;;7.18;4.13;;;;;;;;;;5005582;28;20041;-70
2023/01/28 06:52:37;;;;;;;5.57;4.10;;;;;;;;;;5002831;28;20033;-69
2023/01/28 06:55:02;;;;;;;6.10;3.90;;;;;;;;;;4987057;28;20042;-69
2023/01/28 06:57:32;;;;;;;8.13;3.50;;;;;;;;;;5003164;28;20513;-70
2023/01/28 06:59:59;;;;;;;6.93;3.67;;;;;;;;;;5002837;28;20364;-70
2023/01/28 07:02:25;;;;;;;5.68;3.55;;;;;;;;;;5003482;28;20037;-70
2023/01/28 07:04:52;;;;;;;5.00;3.78;;;;;;;;;;5002860;28;20057;-70
2023/01/28 07:07:20;;;;;;;7.40;3.85;;;;;;;;;;5002113;28;20041;-70
2023/01/28 07:09:45;;;;;;;6.57;3.78;;;;;;;;;;5005050;28;20026;-70
2023/01/28 07:12:12;;;;;;;5.22;3.72;;;;;;;;;;5002661;28;20418;-71
2023/01/28 07:14:38;;;;;;;5.97;3.85;;;;;;;;;;5004489;28;20137;-71
2023/01/28 07:17:03;;;;;;;6.70;4.20;;;;;;;;;;5004246;28;20113;-70
2023/01/28 07:19:30;;;;;;;8.77;5.18;;;;;;;;;;5004702;28;20510;-70
2023/01/28 07:21:59;;;;;;;7.90;4.75;;;;;;;;;;5003072;28;20042;-70
2023/01/28 07:24:24;;;;;;;11.15;5.78;;;;;;;;;;5004964;28;20045;-71
2023/01/28 07:26:54;;;;;;;11.38;5.50;;;;;;;;;;5002818;28;20038;-69
2023/01/28 07:29:20;;;;;;;7.38;4.97;;;;;;;;;;5004662;28;20038;-70
2023/01/28 07:31:48;;;;;;;8.50;5.15;;;;;;;;;;5003498;28;20060;-69
2023/01/28 07:34:13;;;;;;;8.82;5.57;;;;;;;;;;4998105;28;20038;-71
2023/01/28 07:36:38;;;;;;;8.20;4.90;;;;;;;;;;4983359;28;20030;-69
2023/01/28 07:39:06;;;;;;;10.97;5.73;;;;;;;;;;4984734;28;20125;-69
2023/01/28 07:41:31;;;;;;;12.40;6.00;;;;;;;;;;4985769;28;20061;-68
2023/01/28 07:43:56;;;;;;;13.13;7.23;;;;;;;;;;4983182;28;20030;-73
2023/01/28 07:46:22;;;;;;;10.15;6.38;;;;;;;;;;4990977;28;20037;-74
2023/01/28 07:48:47;;;;;;;11.37;6.10;;;;;;;;;;5002571;28;20030;-69
2023/01/28 07:51:12;;;;;;;10.43;5.70;;;;;;;;;;5004666;28;20034;-69
2023/01/28 07:53:38;;;;;;;9.98;5.90;;;;;;;;;;5002814;28;20034;-70
2023/01/28 07:56:04;;;;;;;11.73;6.80;;;;;;;;;;5002955;28;20037;-69
2023/01/28 07:58:29;;;;;;;10.23;6.43;;;;;;;;;;5002369;28;20046;-69
2023/01/28 08:00:55;;;;;;;10.33;6.37;;;;;;;;;;5002862;28;20030;-69
2023/01/28 08:03:22;;;;;;;11.00;6.57;;;;;;;;;;5004023;28;20499;-69
2023/01/28 08:05:51;;;;;;;11.60;7.50;;;;;;;;;;5004660;28;20040;-68
2023/01/28 08:08:17;;;;;;;13.43;7.90;;;;;;;;;;5003945;28;20034;-69
2023/01/28 08:10:44;;;;;;;12.25;7.72;;;;;;;;;;4985551;28;20088;-69
2023/01/28 08:13:10;;;;;;;14.82;7.43;;;;;;;;;;5002740;28;20034;-69
2023/01/28 08:15:35;;;;;;;12.23;7.43;;;;;;;;;;5004100;28;20038;-70
2023/01/28 08:18:01;;;;;;;14.00;8.00;;;;;;;;;;5002893;28;20442;-70
2023/01/28 08:20:27;;;;;;;15.98;7.90;;;;;;;;;;5006100;28;20384;-70
2023/01/28 08:22:53;;;;;;;12.75;7.65;;;;;;;;;;5008148;28;20030;-70
2023/01/28 08:25:18;;;;;;;12.47;7.60;;;;;;;;;;5005971;28;20056;-69
2023/01/28 08:27:44;;;;;;;13.98;7.68;;;;;;;;;;5007365;28;20372;-75
2023/01/28 08:30:09;;;;;;;11.98;7.88;;;;;;;;;;5006157;28;20100;-73
2023/01/28 08:32:37;;;;;;;15.77;8.52;;;;;;;;;;5005511;28;20026;-69
2023/01/28 08:35:02;;;;;;;14.57;7.82;;;;;;;;;;4991199;28;20126;-72
2023/01/28 08:37:28;;;;;;;13.07;8.30;;;;;;;;;;4986335;28;20134;-69
2023/01/28 08:39:56;;;;;;;17.48;8.20;;;;;;;;;;4985785;28;20033;-69
2023/01/28 08:42:21;;;;;;;13.27;8.02;;;;;;;;;;4988058;28;20114;-69
2023/01/28 08:44:47;;;;;;;15.25;8.52;;;;;;;;;;4969886;28;20031;-73
2023/01/28 08:47:13;;;;;;;15.55;8.55;;;;;;;;;;4998936;28;20038;-73
2023/01/28 08:49:38;;;;;;;13.43;7.38;;;;;;;;;;5006887;28;20050;-75
2023/01/28 08:52:03;;;;;;;14.38;8.23;;;;;;;;;;5007451;28;20033;-72
2023/01/28 08:54:29;;;;;;;18.85;8.70;;;;;;;;;;5006901;28;20403;-73
2023/01/28 08:56:54;;;;;;;18.42;10.50;;;;;;;;;;5007245;28;20588;-72
2023/01/28 08:59:22;;;;;;;32.42;17.27;;;;;;;;;;5005232;28;20081;-73
2023/01/28 09:01:47;;;;;;;22.73;10.55;;;;;;;;;;5007544;28;20026;-73
2023/01/28 09:04:12;;;;;;;22.80;8.52;;;;;;;;;;5006476;28;20021;-72
2023/01/28 09:06:40;;;;;;;24.75;8.90;;;;;;;;;;5006977;28;20033;-74
2023/01/28 09:09:05;;;;;;;25.48;8.45;;;;;;;;;;5004662;28;20026;-74
2023/01/28 09:11:32;;;;;;;22.98;8.18;;;;;;;;;;5007475;28;20099;-74
2023/01/28 09:13:57;;;;;;;16.95;8.15;;;;;;;;;;5005150;28;20474;-73
2023/01/28 09:16:23;;;;;;;13.13;7.50;;;;;;;;;;5007164;28;20029;-74
2023/01/28 09:18:50;;;;;;;14.32;8.27;;;;;;;;;;4988714;28;20046;-74
2023/01/28 09:21:15;;;;;;;12.02;8.25;;;;;;;;;;5006910;28;20479;-74
2023/01/28 09:23:41;;;;;;;11.10;6.90;;;;;;;;;;5005024;28;20029;-74
2023/01/28 09:26:07;;;;;;;11.23;7.60;;;;;;;;;;4989347;28;20022;-74
2023/01/28 09:28:33;;;;;;;11.90;7.63;;;;;;;;;;5004795;28;20030;-74
2023/01/28 09:31:02;;;;;;;12.73;7.95;;;;;;;;;;5006793;28;20511;-74
2023/01/28 09:33:28;;;;;;;12.55;7.45;;;;;;;;;;5001027;28;20082;-74
2023/01/28 09:35:53;;;;;;;13.27;8.00;;;;;;;;;;4985573;28;20511;-75
2023/01/28 09:38:21;;;;;;;12.05;7.72;;;;;;;;;;4986816;28;20050;-74
2023/01/28 09:40:46;;;;;;;11.38;6.93;;;;;;;;;;4985286;28;20034;-74
2023/01/28 09:43:15;;;;;;;11.23;7.40;;;;;;;;;;4986947;28;20022;-74
2023/01/28 09:45:47;;;;;;;10.60;6.40;;;;;;;;;;4985252;28;20521;-74
2023/01/28 09:48:18;;;;;;;9.70;5.97;;;;;;;;;;5004756;28;20049;-74
2023/01/28 09:50:48;;;;;;;8.00;5.43;;;;;;;;;;5003835;28;20057;-74
2023/01/28 09:53:19;;;;;;;7.93;5.03;;;;;;;;;;5004170;28;20041;-74
2023/01/28 09:55:49;;;;;;;8.52;4.65;;;;;;;;;;5005973;28;20045;-74
2023/01/28 09:58:16;;;;;;;9.20;4.80;;;;;;;;;;5004646;28;20073;-73
2023/01/28 10:01:01;;;;;;;18.00;6.18;;;;;;;;;;5004834;28;20030;-68
2023/01/28 10:03:32;;;;;;;13.52;6.85;;;;;;;;;;5006006;28;20038;-69
2023/01/28 10:06:16;;;;;;;16.55;6.13;;;;;;;;;;5004239;28;20030;-73
2023/01/28 10:08:59;;;;;;;15.30;6.30;;;;;;;;;;5005760;28;20506;-73
2023/01/28 10:11:44;;;;;;;17.02;6.85;;;;;;;;;;4987546;28;20045;-74
2023/01/28 10:14:20;;;;;;;15.80;7.38;;;;;;;;;;5005729;28;20045;-75
2023/01/28 10:16:45;;;;;;;20.10;6.70;;;;;;;;;;5005477;28;20033;-73
2023/01/28 10:19:28;;;;;;;14.48;6.45;;;;;;;;;;5005539;28;20036;-75
2023/01/28 10:21:56;;;;;;;19.40;6.65;;;;;;;;;;5003364;28;20033;-73
2023/01/28 10:24:33;;;;;;;13.57;6.20;;;;;;;;;;5005486;28;20029;-69
2023/01/28 10:26:59;;;;;;;10.90;6.15;;;;;;;;;;5004068;28;20036;-69
2023/01/28 10:29:28;;;;;;;13.38;6.10;;;;;;;;;;5004017;28;20080;-70
2023/01/28 10:31:57;;;;;;;13.20;5.85;;;;;;;;;;5005652;28;20037;-69
2023/01/28 10:34:22;;;;;;;10.48;5.95;;;;;;;;;;4989928;28;20034;-68
2023/01/28 10:36:48;;;;;;;13.15;5.63;;;;;;;;;;4984390;28;20061;-70
2023/01/28 10:39:15;;;;;;;11.68;5.40;;;;;;;;;;4985681;28;20137;-69
2023/01/28 10:41:40;;;;;;;8.00;5.00;;;;;;;;;;4985400;28;20039;-69
2023/01/28 10:44:12;;;;;;;12.68;5.40;;;;;;;;;;4985718;28;20117;-69
2023/01/28 10:46:44;;;;;;;7.68;4.32;;;;;;;;;;4993477;28;20030;-70
2023/01/28 10:49:17;;;;;;;11.05;4.05;;;;;;;;;;5003405;28;20029;-69
2023/01/28 10:51:44;;;;;;;8.23;4.10;;;;;;;;;;5004775;28;20077;-70
2023/01/28 10:54:21;;;;;;;7.45;3.88;;;;;;;;;;5003740;28;20065;-69
2023/01/28 10:56:50;;;;;;;8.05;3.97;;;;;;;;;;5005246;28;20563;-69
2023/01/28 10:59:21;;;;;;;9.77;4.20;;;;;;;;;;5004824;28;20553;-70
2023/01/28 11:01:48;;;;;;;6.22;3.83;;;;;;;;;;5003430;28;20030;-73
2023/01/28 11:04:15;;;;;;;9.80;4.50;;;;;;;;;;5005324;28;20487;-73
2023/01/28 11:06:41;;;;;;;7.50;3.90;;;;;;;;;;4986706;28;20530;-75
2023/01/28 11:09:19;;;;;;;10.70;4.47;;;;;;;;;;5003527;28;20050;-73
2023/01/28 11:11:44;;;;;;;7.15;3.58;;;;;;;;;;5004620;28;20487;-74
2023/01/28 11:14:17;;;;;;;6.45;3.70;;;;;;;;;;5005003;28;20054;-74
2023/01/28 11:16:42;;;;;;;5.68;3.75;;;;;;;;;;5005211;28;20095;-74
2023/01/28 11:19:10;;;;;;;6.07;3.15;;;;;;;;;;5005052;28;20026;-74
2023/01/28 11:21:36;;;;;;;6.10;2.90;;;;;;;;;;5005139;28;20025;-74
2023/01/28 11:24:05;;;;;;;6.50;3.20;;;;;;;;;;4986847;28;20187;-74
2023/01/28 11:26:35;;;;;;;5.03;3.17;;;;;;;;;;5004856;28;20109;-74
2023/01/28 11:29:00;;;;;;;5.13;3.20;;;;;;;;;;5004779;28;20018;-74
2023/01/28 11:31:26;;;;;;;5.35;3.13;;;;;;;;;;4987167;28;20022;-74
2023/01/28 11:33:52;;;;;;;9.43;3.10;;;;;;;;;;4989315;28;20498;-74
2023/01/28 11:36:24;;;;;;;7.43;3.20;;;;;;;;;;4984005;28;20035;-74
2023/01/28 11:38:51;;;;;;;8.82;3.70;;;;;;;;;;4985077;28;20027;-74
2023/01/28 11:41:17;;;;;;;4.82;2.63;;;;;;;;;;4983305;28;20499;-72
2023/01/28 11:43:44;;;;;;;5.93;3.03;;;;;;;;;;4985566;28;20053;-74
2023/01/28 11:46:18;;;;;;;4.95;3.00;;;;;;;;;;4987550;28;20197;-74
2023/01/28 11:48:55;;;;;;;11.13;3.13;;;;;;;;;;5004636;28;20068;-74
2023/01/28 11:51:34;;;;;;;7.68;3.22;;;;;;;;;;5004002;28;20041;-73
2023/01/28 11:54:05;;;;;;;6.97;3.42;;;;;;;;;;5004227;28;20056;-73
2023/01/28 11:56:39;;;;;;;9.88;3.40;;;;;;;;;;5006489;28;20041;-73
2023/01/28 11:59:14;;;;;;;7.40;3.50;;;;;;;;;;5008446;28;20049;-75
2023/01/28 12:01:48;;;;;;;7.57;3.38;;;;;;;;;;5008919;28;20030;-70
2023/01/28 12:04:32;;;;;;;5.20;3.47;;;;;;;;;;5006521;28;20414;-70
2023/01/28 12:07:15;;;;;;;8.80;3.53;;;;;;;;;;5006554;28;20049;-70
2023/01/28 12:09:59;;;;;;;7.00;3.30;;;;;;;;;;5008290;28;20045;-70
2023/01/28 12:12:33;;;;;;;5.88;3.30;;;;;;;;;;5007910;28;20038;-70
2023/01/28 12:14:59;;;;;;;5.07;3.38;;;;;;;;;;5007954;28;20119;-75
2023/01/28 12:17:30;;;;;;;5.88;3.25;;;;;;;;;;5006731;28;20034;-71
2023/01/28 12:20:09;;;;;;;5.15;3.38;;;;;;;;;;4989944;28;20052;-70
2023/01/28 12:22:45;;;;;;;6.80;2.95;;;;;;;;;;5007723;28;20030;-70
2023/01/28 12:25:17;;;;;;;6.60;3.05;;;;;;;;;;4989913;28;20022;-70
2023/01/28 12:27:50;;;;;;;7.03;3.60;;;;;;;;;;5006508;28;20479;-75
2023/01/28 12:30:42;;;;;;;9.25;4.03;;;;;;;;;;5007795;28;20080;-74
2023/01/28 12:33:28;;;;;;;4.78;3.25;;;;;;;;;;4997403;28;20077;-75
2023/01/28 12:36:09;;;;;;;8.00;3.40;;;;;;;;;;4987980;28;20109;-74
2023/01/28 12:38:37;;;;;;;4.43;3.00;;;;;;;;;;4986335;28;20033;-74
2023/01/28 12:41:03;;;;;;;6.60;3.28;;;;;;;;;;4986327;28;20026;-74
2023/01/28 12:43:31;;;;;;;7.72;3.20;;;;;;;;;;4988251;28;20034;-76
2023/01/28 12:45:56;;;;;;;9.60;3.58;;;;;;;;;;4989690;28;20027;-70
2023/01/28 12:48:27;;;;;;;7.78;3.70;;;;;;;;;;5005931;28;20056;-70
2023/01/28 12:51:01;;;;;;;8.52;3.72;;;;;;;;;;5006999;28;20038;-70
2023/01/28 12:53:30;;;;;;;7.68;3.25;;;;;;;;;;4989179;28;20545;-70
2023/01/28 12:55:59;;;;;;;9.32;4.30;;;;;;;;;;5005192;28;20046;-70
2023/01/28 12:58:37;;;;;;;6.88;3.92;;;;;;;;;;5005307;28;20066;-70
2023/01/28 13:01:07;;;;;;;6.63;3.97;;;;;;;;;;5003888;28;20036;-70
2023/01/28 13:03:42;;;;;;;6.20;3.90;;;;;;;;;;5006831;28;20050;-70
2023/01/28 13:06:11;;;;;;;8.82;3.85;;;;;;;;;;5004919;28;20170;-71
2023/01/28 13:08:37;;;;;;;6.32;3.58;;;;;;;;;;5006987;28;20073;-70
2023/01/28 13:11:02;;;;;;;6.22;3.75;;;;;;;;;;5007469;28;20534;-70
2023/01/28 13:13:35;;;;;;;5.50;2.95;;;;;;;;;;4989262;28;20033;-70
2023/01/28 13:16:03;;;;;;;6.88;3.35;;;;;;;;;;5006334;28;20057;-70
2023/01/28 13:18:32;;;;;;;8.75;3.42;;;;;;;;;;5005035;28;20514;-71
2023/01/28 13:20:57;;;;;;;5.90;3.05;;;;;;;;;;5005300;28;20053;-71
2023/01/28 13:23:25;;;;;;;4.82;2.80;;;;;;;;;;5006646;28;20041;-71
2023/01/28 13:25:52;;;;;;;6.05;2.88;;;;;;;;;;4988741;28;20034;-71
2023/01/28 13:28:27;;;;;;;7.80;3.28;;;;;;;;;;5005179;28;20026;-70
2023/01/28 13:31:05;;;;;;;6.22;2.67;;;;;;;;;;5006453;28;20542;-74
2023/01/28 13:33:38;;;;;;;7.40;2.90;;;;;;;;;;4990804;28;20042;-75
2023/01/28 13:36:21;;;;;;;5.05;2.50;;;;;;;;;;4987176;28;20034;-75
2023/01/28 13:38:48;;;;;;;6.55;2.70;;;;;;;;;;4987095;28;20492;-73
2023/01/28 13:41:15;;;;;;;3.58;2.65;;;;;;;;;;4987249;28;20034;-74
2023/01/28 13:43:41;;;;;;;5.15;2.60;;;;;;;;;;4986632;28;20037;-73
2023/01/28 13:46:12;;;;;;;4.70;2.58;;;;;;;;;;4990657;28;20113;-74
2023/01/28 13:48:51;;;;;;;5.45;2.58;;;;;;;;;;4988280;28;20022;-74
2023/01/28 13:51:28;;;;;;;7.03;2.90;;;;;;;;;;5004968;28;20042;-74
2023/01/28 13:53:59;;;;;;;6.75;3.30;;;;;;;;;;5006373;28;20050;-74
2023/01/28 13:56:36;;;;;;;8.32;4.07;;;;;;;;;;5004283;28;20049;-74
2023/01/28 13:59:14;;;;;;;8.50;3.60;;;;;;;;;;4988237;28;20018;-74
2023/01/28 14:01:43;;;;;;;10.13;3.97;;;;;;;;;;5001779;28;20091;-74
2023/01/28 14:04:20;;;;;;;6.38;3.10;;;;;;;;;;5005687;28;20073;-73
2023/01/28 14:07:06;;;;;;;7.85;4.00;;;;;;;;;;5005956;28;20033;-75
2023/01/28 14:09:40;;;;;;;9.15;7.03;;;;;;;;;;5005709;28;20558;-75
2023/01/28 14:12:24;;;;;;;7.32;4.47;;;;;;;;;;5005876;28;20032;-74
2023/01/28 14:15:05;;;;;;;10.15;4.45;;;;;;;;;;5005355;28;20449;-74
2023/01/28 14:17:49;;;;;;;9.75;4.05;;;;;;;;;;5003320;28;20372;-75
2023/01/28 14:20:38;;;;;;;7.60;3.80;;;;;;;;;;5004325;28;20076;-74
2023/01/28 14:23:14;;;;;;;10.27;3.70;;;;;;;;;;5006002;28;20509;-74
2023/01/28 14:25:48;;;;;;;7.72;4.18;;;;;;;;;;5005774;28;20145;-75
2023/01/28 14:28:17;;;;;;;8.40;3.80;;;;;;;;;;5003964;28;20034;-74
2023/01/28 14:30:46;;;;;;;7.70;4.03;;;;;;;;;;5005584;28;20034;-75
2023/01/28 14:33:11;;;;;;;8.52;4.47;;;;;;;;;;4989721;28;20081;-75
2023/01/28 14:35:38;;;;;;;12.85;4.93;;;;;;;;;;4984125;28;20058;-74
2023/01/28 14:38:10;;;;;;;10.35;6.47;;;;;;;;;;4967873;28;20033;-75
2023/01/28 14:40:36;;;;;;;7.60;4.68;;;;;;;;;;4984238;28;20049;-74
2023/01/28 14:43:05;;;;;;;7.20;4.43;;;;;;;;;;4984624;28;20042;-77
2023/01/28 14:45:33;;;;;;;10.88;4.20;;;;;;;;;;4984459;28;20022;-75
2023/01/28 14:47:58;;;;;;;11.43;3.88;;;;;;;;;;5002769;28;20030;-74
2023/01/28 14:50:27;;;;;;;8.98;4.10;;;;;;;;;;5003789;28;20038;-74
2023/01/28 14:53:11;;;;;;;7.45;3.67;;;;;;;;;;5003641;28;20113;-74
2023/01/28 14:55:55;;;;;;;6.65;3.75;;;;;;;;;;5003221;28;20038;-75
2023/01/28 14:58:26;;;;;;;8.27;3.40;;;;;;;;;;5005033;28;20056;-75
2023/01/28 15:00:53;;;;;;;10.48;3.60;;;;;;;;;;5004951;28;20033;-74
2023/01/28 15:03:18;;;;;;;8.68;3.50;;;;;;;;;;5005445;28;20099;-76
2023/01/28 15:05:43;;;;;;;9.00;3.67;;;;;;;;;;5002863;28;20491;-74
2023/01/28 15:08:18;;;;;;;8.27;3.53;;;;;;;;;;5003818;28;20379;-75
2023/01/28 15:10:43;;;;;;;6.90;3.05;;;;;;;;;;5004724;28;20022;-72
2023/01/28 15:13:12;;;;;;;7.07;2.92;;;;;;;;;;5003399;28;20026;-70
2023/01/28 15:15:39;;;;;;;7.97;3.40;;;;;;;;;;5004701;28;20077;-71
2023/01/28 15:18:10;;;;;;;7.05;2.90;;;;;;;;;;5005132;28;20100;-70